createdAt,value
2023-02-05T00:00:56.282Z,7.43
2023-02-05T00:03:23.797Z,5.55
2023-02-05T00:05:50.991Z,6.07
2023-02-05T00:08:18.192Z,4.10
2023-02-05T00:10:51.765Z,4.35
2023-02-05T00:13:18.934Z,4.70
2023-02-05T00:15:46.432Z,3.65
2023-02-05T00:18:13.879Z,3.72
2023-02-05T00:20:41.273Z,2.83
2023-02-05T00:23:08.687Z,3.42
2023-02-05T00:25:35.971Z,2.05
2023-02-05T00:28:03.481Z,4.85
2023-02-05T00:30:31.084Z,2.30
2023-02-05T00:32:58.308Z,2.90
2023-02-05T00:35:25.468Z,3.75
2023-02-05T00:37:52.933Z,3.62
2023-02-05T00:40:20.097Z,2.95
2023-02-05T00:42:47.548Z,3.47
2023-02-05T00:45:15.591Z,2.55
2023-02-05T00:47:42.737Z,8.30
2023-02-05T00:50:10.055Z,2.25
2023-02-05T00:52:37.547Z,4.50
2023-02-05T00:55:05.273Z,3.92
2023-02-05T00:57:33.006Z,3.05
2023-02-05T01:00:00.537Z,5.05
2023-02-05T01:02:27.759Z,2.53
2023-02-05T01:04:55.263Z,6.10
2023-02-05T01:07:22.785Z,4.62
2023-02-05T01:09:50.011Z,4.95
2023-02-05T01:12:17.154Z,3.83
2023-02-05T01:14:44.625Z,4.07
2023-02-05T01:17:11.829Z,4.85
2023-02-05T01:19:38.985Z,3.53
2023-02-05T01:22:06.541Z,3.00
2023-02-05T01:24:33.916Z,3.20
2023-02-05T01:27:01.221Z,3.55
2023-02-05T01:29:29.448Z,4.22
2023-02-05T01:31:57.153Z,4.97
2023-02-05T01:34:24.529Z,3.62
2023-02-05T01:36:51.990Z,4.75
2023-02-05T01:39:19.277Z,3.45
2023-02-05T01:41:46.591Z,3.90
2023-02-05T01:44:22.443Z,4.32
2023-02-05T01:46:49.602Z,2.83
2023-02-05T01:49:38.934Z,4.03
2023-02-05T01:52:11.098Z,3.33
2023-02-05T01:54:41.626Z,3.37
2023-02-05T01:57:11.797Z,2.62
2023-02-05T01:59:41.154Z,2.17
2023-02-05T02:02:08.513Z,2.97
2023-02-05T02:04:43.265Z,4.25
2023-02-05T02:07:13.364Z,3.20
2023-02-05T02:09:42.414Z,4.97
2023-02-05T02:12:11.023Z,4.30
2023-02-05T02:14:39.968Z,2.33
2023-02-05T02:17:09.322Z,3.03
2023-02-05T02:19:52.296Z,4.40
2023-02-05T02:22:38.375Z,3.10
2023-02-05T02:25:23.775Z,2.70
2023-02-05T02:28:20.208Z,6.15
2023-02-05T02:30:57.229Z,3.03
2023-02-05T02:33:50.961Z,4.12
2023-02-05T02:36:18.065Z,3.47
2023-02-05T02:38:54.067Z,3.80
2023-02-05T02:41:31.113Z,6.70
2023-02-05T02:44:00.128Z,5.70
2023-02-05T02:46:48.447Z,3.37
2023-02-05T02:49:20.333Z,6.40
2023-02-05T02:51:49.920Z,4.50
2023-02-05T02:54:21.419Z,4.00
2023-02-05T02:56:50.225Z,5.18
2023-02-05T02:59:19.145Z,4.07
2023-02-05T03:01:53.887Z,4.15
2023-02-05T03:04:26.287Z,5.25
2023-02-05T03:06:54.761Z,5.65
2023-02-05T03:09:40.549Z,3.60
2023-02-05T03:12:07.895Z,5.53
2023-02-05T03:14:35.913Z,5.22
2023-02-05T03:17:04.224Z,3.17
2023-02-05T03:19:31.925Z,3.15
2023-02-05T03:22:02.981Z,3.25
2023-02-05T03:24:33.310Z,3.62
2023-02-05T03:27:00.867Z,3.05
2023-02-05T03:29:31.627Z,5.18
2023-02-05T03:32:09.266Z,3.00
2023-02-05T03:35:06.132Z,4.68
2023-02-05T03:37:56.232Z,5.62
2023-02-05T03:40:32.920Z,4.97
2023-02-05T03:43:31.715Z,2.83
2023-02-05T03:46:24.243Z,4.43
2023-02-05T03:49:17.537Z,3.37
2023-02-05T03:52:26.077Z,3.90
2023-02-05T03:54:56.681Z,5.45
2023-02-05T03:57:35.696Z,3.42
2023-02-05T04:00:04.959Z,3.25
2023-02-05T04:02:42.184Z,5.65
2023-02-05T04:05:10.064Z,4.18
2023-02-05T04:07:38.661Z,5.00
2023-02-05T04:10:06.299Z,4.28
2023-02-05T04:12:34.440Z,4.30
2023-02-05T04:15:01.954Z,5.07
2023-02-05T04:17:29.182Z,4.07
2023-02-05T04:19:56.855Z,5.55
2023-02-05T04:22:24.729Z,3.33
2023-02-05T04:24:52.064Z,5.87
2023-02-05T04:27:20.467Z,3.78
2023-02-05T04:29:48.709Z,4.62
2023-02-05T04:32:16.252Z,3.90
2023-02-05T04:34:43.809Z,4.03
2023-02-05T04:37:11.580Z,4.53
2023-02-05T04:39:39.671Z,4.55
2023-02-05T04:42:07.185Z,4.50
2023-02-05T04:44:34.416Z,3.35
2023-02-05T04:47:01.573Z,5.15
2023-02-05T04:49:28.986Z,5.30
2023-02-05T04:51:56.162Z,4.12
2023-02-05T04:54:23.338Z,4.28
2023-02-05T04:56:50.761Z,4.15
2023-02-05T04:59:17.941Z,3.12
2023-02-05T05:01:45.230Z,5.72
2023-02-05T05:04:12.674Z,3.87
2023-02-05T05:06:39.855Z,4.00
2023-02-05T05:09:07.017Z,3.53
2023-02-05T05:11:34.457Z,9.35
2023-02-05T05:14:01.619Z,3.50
2023-02-05T05:16:28.819Z,3.87
2023-02-05T05:18:56.279Z,3.92
2023-02-05T05:21:23.456Z,5.35
2023-02-05T05:23:50.736Z,4.80
2023-02-05T05:26:18.224Z,2.90
2023-02-05T05:28:45.390Z,5.93
2023-02-05T05:31:17.298Z,2.62
2023-02-05T05:33:44.835Z,2.87
2023-02-05T05:36:12.060Z,4.47
2023-02-05T05:38:39.643Z,4.82
2023-02-05T05:41:25.525Z,4.18
2023-02-05T05:43:54.421Z,4.18
2023-02-05T05:46:25.011Z,4.50
2023-02-05T05:48:54.648Z,4.12
2023-02-05T05:51:23.558Z,4.97
2023-02-05T05:53:51.109Z,3.42
2023-02-05T05:56:18.874Z,7.47
2023-02-05T05:58:47.201Z,6.25
2023-02-05T06:01:15.765Z,6.97
2023-02-05T06:03:43.263Z,5.62
2023-02-05T06:06:12.241Z,11.12
2023-02-05T06:08:39.441Z,8.23
2023-02-05T06:11:06.953Z,6.25
2023-02-05T06:13:34.986Z,6.55
2023-02-05T06:16:02.734Z,7.20
2023-02-05T06:18:30.619Z,9.93
2023-02-05T06:20:57.903Z,6.90
2023-02-05T06:23:25.130Z,8.00
2023-02-05T06:25:52.601Z,8.02
2023-02-05T06:28:19.817Z,12.05
2023-02-05T06:30:47.112Z,6.78
2023-02-05T06:33:14.872Z,7.53
2023-02-05T06:35:42.290Z,10.10
2023-02-05T06:38:09.588Z,5.07
2023-02-05T06:40:37.044Z,4.75
2023-02-05T06:43:04.233Z,5.57
2023-02-05T06:45:31.456Z,5.65
2023-02-05T06:47:59.135Z,7.35
2023-02-05T06:50:26.618Z,8.68
2023-02-05T06:52:53.814Z,5.65
2023-02-05T06:55:21.335Z,5.75
2023-02-05T06:57:48.507Z,4.10
2023-02-05T07:00:16.711Z,7.10
2023-02-05T07:02:44.301Z,6.18
2023-02-05T07:05:11.502Z,6.05
2023-02-05T07:07:38.825Z,5.05
2023-02-05T07:10:06.628Z,5.12
2023-02-05T07:12:33.784Z,8.80
2023-02-05T07:15:00.947Z,6.80
2023-02-05T07:17:28.484Z,34.55
2023-02-05T07:19:55.681Z,8.20
2023-02-05T07:22:22.891Z,7.78
2023-02-05T07:24:50.393Z,5.60
2023-02-05T07:27:17.572Z,6.45
2023-02-05T07:29:45.098Z,7.93
2023-02-05T07:32:12.579Z,5.68
2023-02-05T07:34:39.796Z,5.47
2023-02-05T07:37:06.986Z,7.03
2023-02-05T07:39:34.473Z,7.53
2023-02-05T07:42:01.666Z,6.40
2023-02-05T07:44:30.374Z,8.55
2023-02-05T07:46:57.908Z,7.70
2023-02-05T07:49:25.227Z,8.55
2023-02-05T07:51:52.383Z,9.45
2023-02-05T07:54:19.870Z,9.98
2023-02-05T07:56:47.094Z,6.78
2023-02-05T07:59:14.376Z,15.30
2023-02-05T08:01:42.034Z,12.45
2023-02-05T08:04:09.596Z,4.85
2023-02-05T08:06:36.781Z,5.93
2023-02-05T08:09:04.108Z,6.45
2023-02-05T08:11:32.671Z,10.45
2023-02-05T08:14:00.955Z,12.70
2023-02-05T08:16:28.133Z,12.05
2023-02-05T08:18:55.657Z,7.65
2023-02-05T08:21:23.015Z,10.82
2023-02-05T08:23:50.619Z,12.10
2023-02-05T08:26:18.663Z,7.18
2023-02-05T08:28:46.131Z,10.68
2023-02-05T08:31:15.095Z,12.27
2023-02-05T08:33:42.574Z,6.60
2023-02-05T08:36:10.765Z,6.72
2023-02-05T08:38:38.233Z,6.82
2023-02-05T08:41:12.995Z,5.68
2023-02-05T08:43:45.077Z,4.65
2023-02-05T08:46:14.727Z,7.18
2023-02-05T08:48:42.241Z,3.67
2023-02-05T08:51:10.860Z,3.35
2023-02-05T08:53:38.676Z,3.70
2023-02-05T08:56:06.420Z,6.35
2023-02-05T08:58:33.832Z,5.37
2023-02-05T09:01:09.883Z,5.78
2023-02-05T09:03:37.281Z,3.00
2023-02-05T09:06:07.669Z,9.82
2023-02-05T09:08:34.979Z,4.82
2023-02-05T09:11:02.529Z,3.17
2023-02-05T09:13:30.046Z,5.07
2023-02-05T09:15:57.230Z,3.78
2023-02-05T09:18:24.421Z,6.75
2023-02-05T09:20:52.165Z,6.75
2023-02-05T09:23:19.452Z,4.00
2023-02-05T09:25:46.640Z,3.15
2023-02-05T09:28:15.152Z,4.10
2023-02-05T09:30:44.693Z,9.15
2023-02-05T09:33:12.796Z,4.55
2023-02-05T09:35:40.458Z,6.40
2023-02-05T09:38:07.935Z,6.00
2023-02-05T09:40:59.262Z,4.68
2023-02-05T09:43:52.171Z,8.15
2023-02-05T09:46:38.206Z,3.65
2023-02-05T09:49:15.007Z,9.98
2023-02-05T09:51:44.322Z,5.25
2023-02-05T09:54:27.417Z,2.95
2023-02-05T09:56:58.683Z,3.72
2023-02-05T09:59:27.655Z,4.75
2023-02-05T10:01:58.637Z,4.65
2023-02-05T10:04:27.429Z,4.15
2023-02-05T10:07:03.493Z,8.35
2023-02-05T10:09:51.202Z,10.32
2023-02-05T10:12:41.347Z,4.18
2023-02-05T10:15:34.138Z,10.57
2023-02-05T10:18:13.176Z,4.53
2023-02-05T10:20:52.492Z,5.37
2023-02-05T10:23:54.538Z,3.90
2023-02-05T10:26:25.253Z,6.43
2023-02-05T10:28:55.277Z,4.37
2023-02-05T10:31:27.956Z,4.97
2023-02-05T10:34:01.088Z,7.20
2023-02-05T10:36:28.661Z,4.15
2023-02-05T10:38:57.179Z,4.00
2023-02-05T10:41:48.077Z,6.93
2023-02-05T10:44:36.282Z,2.20
2023-02-05T10:47:10.550Z,7.72
2023-02-05T10:50:01.521Z,10.90
2023-02-05T10:52:28.659Z,4.80
2023-02-05T10:54:56.074Z,3.30
2023-02-05T10:57:23.813Z,4.85
2023-02-05T10:59:56.240Z,3.67
2023-02-05T11:02:29.238Z,4.43
2023-02-05T11:05:07.373Z,7.45
2023-02-05T11:07:40.098Z,9.80
2023-02-05T11:10:21.465Z,6.50
2023-02-05T11:12:51.745Z,3.20
2023-02-05T11:15:30.236Z,6.32
2023-02-05T11:18:04.271Z,4.37
2023-02-05T11:20:39.044Z,7.68
2023-02-05T11:23:22.789Z,6.30
2023-02-05T11:26:01.293Z,9.23
2023-02-05T11:28:30.470Z,4.22
2023-02-05T11:30:58.723Z,7.40
2023-02-05T11:33:28.431Z,17.52
2023-02-05T11:36:05.819Z,16.42
2023-02-05T11:38:46.941Z,21.50
2023-02-05T11:41:26.722Z,6.22
2023-02-05T11:43:54.233Z,3.95
2023-02-05T11:46:23.977Z,5.28
2023-02-05T11:48:58.006Z,4.60
2023-02-05T11:51:46.024Z,5.60
2023-02-05T11:54:21.591Z,35.13
2023-02-05T11:57:21.409Z,4.07
2023-02-05T12:00:12.586Z,3.45
2023-02-05T12:02:40.973Z,5.72
2023-02-05T12:05:17.541Z,2.28
2023-02-05T12:07:47.502Z,4.28
2023-02-05T12:10:17.870Z,4.30
2023-02-05T12:12:57.121Z,12.63
2023-02-05T12:15:32.248Z,6.53
2023-02-05T12:18:27.434Z,4.50
2023-02-05T12:21:06.838Z,4.93
2023-02-05T12:24:20.640Z,6.03
2023-02-05T12:26:50.239Z,3.50
2023-02-05T12:29:59.394Z,5.22
2023-02-05T12:32:54.194Z,6.87
2023-02-05T12:35:55.078Z,6.70
2023-02-05T12:38:32.559Z,5.35
2023-02-05T12:41:27.919Z,4.95
2023-02-05T12:44:21.517Z,6.30
2023-02-05T12:47:00.716Z,6.07
2023-02-05T12:49:34.972Z,12.93
2023-02-05T12:52:05.907Z,4.03
2023-02-05T12:54:56.521Z,3.60
2023-02-05T12:57:33.146Z,3.75
2023-02-05T13:00:07.738Z,7.05
2023-02-05T13:02:40.260Z,11.10
2023-02-05T13:05:47.268Z,7.10
2023-02-05T13:08:38.872Z,7.87
2023-02-05T13:11:40.251Z,3.78
2023-02-05T13:14:18.544Z,4.57
2023-02-05T13:16:49.623Z,8.55
2023-02-05T13:19:30.845Z,8.02
2023-02-05T13:22:20.534Z,3.40
2023-02-05T13:25:13.539Z,4.05
2023-02-05T13:28:02.685Z,3.22
2023-02-05T13:30:43.862Z,3.87
2023-02-05T13:33:11.431Z,5.15
2023-02-05T13:35:56.806Z,16.60
2023-02-05T13:38:24.165Z,4.90
2023-02-05T13:41:02.248Z,4.43
2023-02-05T13:43:35.949Z,3.70
2023-02-05T13:46:49.459Z,5.47
2023-02-05T13:49:22.893Z,9.20
2023-02-05T13:52:19.868Z,5.60
2023-02-05T13:54:53.298Z,6.87
2023-02-05T13:58:01.143Z,9.82
2023-02-05T14:00:29.234Z,3.17
2023-02-05T14:02:57.444Z,7.87
2023-02-05T14:05:39.844Z,6.00
2023-02-05T14:08:19.955Z,3.62
2023-02-05T14:10:49.338Z,6.47
2023-02-05T14:13:23.998Z,27.37
2023-02-05T14:15:54.071Z,8.77
2023-02-05T14:18:39.999Z,3.10
2023-02-05T14:21:31.693Z,15.60
2023-02-05T14:24:02.856Z,3.20
2023-02-05T14:26:51.597Z,8.88
2023-02-05T14:29:37.934Z,5.22
2023-02-05T14:32:05.292Z,7.78
2023-02-05T14:34:32.694Z,18.23
2023-02-05T14:37:00.420Z,6.28
2023-02-05T14:39:35.376Z,3.67
2023-02-05T14:42:05.538Z,20.58
2023-02-05T14:44:38.485Z,7.95
2023-02-05T14:47:35.770Z,6.97
2023-02-05T14:50:07.336Z,9.93
2023-02-05T14:52:38.842Z,3.97
2023-02-05T14:55:07.888Z,14.20
2023-02-05T14:57:56.947Z,8.75
2023-02-05T15:00:35.067Z,6.40
2023-02-05T15:03:05.052Z,5.07
2023-02-05T15:05:46.716Z,4.22
2023-02-05T15:08:33.000Z,4.28
2023-02-05T15:11:18.904Z,5.20
2023-02-05T15:14:21.380Z,5.70
2023-02-05T15:17:11.488Z,7.22
2023-02-05T15:19:43.117Z,5.60
2023-02-05T15:22:23.852Z,5.55
2023-02-05T15:24:53.674Z,7.05
2023-02-05T15:27:42.884Z,10.40
2023-02-05T15:30:17.163Z,18.42
2023-02-05T15:32:51.013Z,7.65
2023-02-05T15:35:20.413Z,8.63
2023-02-05T15:38:00.749Z,10.80
2023-02-05T15:40:31.558Z,7.20
2023-02-05T15:43:11.965Z,9.60
2023-02-05T15:45:44.874Z,11.63
2023-02-05T15:48:16.742Z,11.45
2023-02-05T15:50:44.051Z,182.15
2023-02-05T15:53:26.291Z,153.52
2023-02-05T15:55:53.822Z,467.90
2023-02-05T15:58:22.117Z,361.08
2023-02-05T16:00:49.927Z,13.43
2023-02-05T16:03:32.521Z,10.52
2023-02-05T16:06:01.217Z,9.95
2023-02-05T16:08:29.267Z,14.87
2023-02-05T16:10:58.369Z,10.18
2023-02-05T16:13:28.718Z,10.80
2023-02-05T16:16:06.580Z,35.85
2023-02-05T16:18:34.278Z,12.90
2023-02-05T16:21:24.655Z,15.52
2023-02-05T16:23:57.383Z,21.42
2023-02-05T16:26:39.321Z,14.23
2023-02-05T16:29:14.164Z,13.50
2023-02-05T16:31:57.923Z,14.70
2023-02-05T16:34:26.033Z,48.60
2023-02-05T16:36:54.599Z,17.50
2023-02-05T16:39:54.532Z,16.83
2023-02-05T16:42:51.232Z,14.45
2023-02-05T16:45:21.750Z,13.52
2023-02-05T16:48:15.510Z,42.88
2023-02-05T16:50:43.805Z,14.43
2023-02-05T16:53:25.553Z,18.73
2023-02-05T16:55:58.382Z,16.95
2023-02-05T16:58:28.989Z,20.20
2023-02-05T17:00:58.991Z,25.23
2023-02-05T17:03:35.591Z,31.40
2023-02-05T17:06:04.429Z,26.87
2023-02-05T17:08:33.919Z,19.73
2023-02-05T17:11:06.086Z,31.33
2023-02-05T17:13:44.515Z,22.33
2023-02-05T17:16:20.981Z,24.98
2023-02-05T17:19:01.248Z,30.62
2023-02-05T17:21:34.876Z,27.95
2023-02-05T17:24:05.044Z,23.52
2023-02-05T17:26:34.290Z,20.85
2023-02-05T17:29:04.768Z,19.20
2023-02-05T17:31:36.174Z,18.83
2023-02-05T17:34:04.030Z,21.33
2023-02-05T17:36:31.240Z,20.92
2023-02-05T17:38:58.510Z,19.35
2023-02-05T17:41:46.704Z,18.42
2023-02-05T17:44:16.139Z,22.08
2023-02-05T17:46:44.431Z,18.55
2023-02-05T17:49:11.624Z,24.25
2023-02-05T17:51:41.727Z,24.80
2023-02-05T17:54:17.182Z,18.12
2023-02-05T17:56:45.022Z,15.65
2023-02-05T17:59:14.521Z,21.23
2023-02-05T18:01:41.770Z,21.87
2023-02-05T18:04:09.196Z,22.30
2023-02-05T18:06:37.400Z,26.73
2023-02-05T18:09:05.345Z,21.52
2023-02-05T18:11:32.829Z,25.55
2023-02-05T18:14:00.718Z,14.63
2023-02-05T18:16:28.036Z,25.75
2023-02-05T18:18:55.533Z,26.65
2023-02-05T18:21:24.534Z,20.17
2023-02-05T18:23:54.750Z,16.35
2023-02-05T18:26:22.279Z,20.80
2023-02-05T18:28:49.948Z,11.48
2023-02-05T18:31:17.391Z,10.65
2023-02-05T18:33:45.063Z,9.15
2023-02-05T18:36:14.098Z,11.27
2023-02-05T18:38:45.186Z,17.60
2023-02-05T18:41:15.380Z,11.23
2023-02-05T18:43:42.864Z,16.42
2023-02-05T18:46:11.369Z,38.53
2023-02-05T18:48:40.812Z,14.13
2023-02-05T18:51:09.651Z,16.23
2023-02-05T18:53:38.991Z,20.65
2023-02-05T18:56:08.844Z,27.90
2023-02-05T18:58:36.699Z,24.92
2023-02-05T19:01:11.907Z,20.52
2023-02-05T19:03:40.813Z,23.15
2023-02-05T19:06:09.030Z,24.20
2023-02-05T19:08:36.548Z,21.95
2023-02-05T19:11:20.240Z,24.65
2023-02-05T19:13:48.380Z,34.45
2023-02-05T19:16:16.943Z,45.67
2023-02-05T19:18:45.589Z,46.40
2023-02-05T19:21:14.981Z,80.87
2023-02-05T19:23:44.357Z,27.35
2023-02-05T19:26:16.340Z,30.45
2023-02-05T19:28:45.723Z,41.40
2023-02-05T19:31:15.135Z,66.55
2023-02-05T19:33:43.083Z,122.05
2023-02-05T19:36:11.186Z,83.80
2023-02-05T19:38:40.408Z,96.60
2023-02-05T19:41:08.158Z,68.30
2023-02-05T19:43:35.710Z,24.98
2023-02-05T19:46:07.469Z,55.70
2023-02-05T19:48:34.728Z,43.58
2023-02-05T19:51:06.889Z,37.22
2023-02-05T19:53:35.540Z,29.33
2023-02-05T19:56:07.029Z,65.75
2023-02-05T19:58:34.906Z,54.30
2023-02-05T20:01:11.126Z,74.87
2023-02-05T20:03:39.255Z,71.07
2023-02-05T20:06:07.224Z,43.22
2023-02-05T20:08:34.438Z,57.10
2023-02-05T20:11:02.797Z,68.45
2023-02-05T20:13:31.824Z,68.12
2023-02-05T20:16:08.624Z,52.30
2023-02-05T20:18:36.985Z,34.60
2023-02-05T20:21:12.530Z,35.47
2023-02-05T20:23:40.149Z,32.85
2023-02-05T20:26:07.952Z,39.67
2023-02-05T20:28:57.972Z,28.40
2023-02-05T20:31:33.602Z,37.88
2023-02-05T20:34:05.932Z,24.08
2023-02-05T20:36:34.868Z,29.00
2023-02-05T20:39:04.919Z,26.40
2023-02-05T20:41:32.286Z,37.40
2023-02-05T20:43:59.997Z,59.05
2023-02-05T20:46:27.202Z,77.97
2023-02-05T20:48:54.404Z,48.67
2023-02-05T20:51:23.077Z,35.63
2023-02-05T20:53:50.458Z,38.92
2023-02-05T20:56:19.716Z,60.58
2023-02-05T20:58:47.365Z,58.67
2023-02-05T21:01:20.829Z,25.40
2023-02-05T21:03:57.842Z,25.60
2023-02-05T21:06:25.859Z,23.85
2023-02-05T21:08:54.062Z,33.63
2023-02-05T21:11:23.323Z,24.48
2023-02-05T21:13:51.110Z,25.52
2023-02-05T21:16:21.066Z,24.40
2023-02-05T21:18:49.293Z,26.33
2023-02-05T21:21:17.899Z,23.77
2023-02-05T21:23:48.867Z,33.00
2023-02-05T21:26:21.045Z,19.77
2023-02-05T21:28:48.848Z,20.42
2023-02-05T21:31:16.007Z,20.55
2023-02-05T21:33:43.138Z,21.70
2023-02-05T21:36:11.219Z,26.12
2023-02-05T21:38:39.805Z,27.37
2023-02-05T21:41:11.638Z,40.28
2023-02-05T21:43:39.125Z,46.83
2023-02-05T21:46:08.810Z,33.47
2023-02-05T21:48:36.143Z,25.42
2023-02-05T21:51:12.022Z,36.95
2023-02-05T21:53:39.621Z,66.80
2023-02-05T21:56:09.804Z,49.58
2023-02-05T21:58:38.457Z,30.67
2023-02-05T22:01:21.036Z,19.67
2023-02-05T22:04:02.778Z,20.60
2023-02-05T22:06:32.125Z,25.90
2023-02-05T22:09:00.147Z,29.85
2023-02-05T22:11:28.157Z,19.33
2023-02-05T22:13:56.233Z,32.03
2023-02-05T22:16:33.724Z,45.25
2023-02-05T22:19:01.601Z,48.80
2023-02-05T22:21:30.054Z,43.80
2023-02-05T22:23:58.726Z,34.38
2023-02-05T22:26:34.306Z,40.45
2023-02-05T22:29:02.693Z,36.00
2023-02-05T22:31:30.122Z,48.97
2023-02-05T22:33:57.412Z,30.52
2023-02-05T22:36:27.399Z,55.22
2023-02-05T22:38:55.394Z,63.78
2023-02-05T22:41:25.415Z,44.67
2023-02-05T22:43:54.561Z,36.50
2023-02-05T22:46:23.958Z,36.75
2023-02-05T22:48:52.268Z,31.58
2023-02-05T22:51:24.994Z,40.00
2023-02-05T22:53:53.122Z,26.55
2023-02-05T22:56:21.503Z,24.67
2023-02-05T22:58:49.196Z,26.80
2023-02-05T23:01:18.900Z,30.25
2023-02-05T23:03:49.165Z,28.85
2023-02-05T23:06:23.557Z,35.83
2023-02-05T23:08:53.285Z,27.40
2023-02-05T23:11:21.323Z,31.52
2023-02-05T23:13:48.669Z,25.00
2023-02-05T23:16:21.680Z,25.52
2023-02-05T23:18:49.414Z,25.95
2023-02-05T23:21:19.962Z,24.35
2023-02-05T23:23:47.489Z,24.87
2023-02-05T23:26:18.069Z,28.77
2023-02-05T23:28:46.165Z,31.48
2023-02-05T23:31:13.699Z,34.50
2023-02-05T23:33:40.926Z,38.80
2023-02-05T23:36:08.863Z,29.48
2023-02-05T23:38:36.124Z,24.10
2023-02-05T23:41:03.360Z,44.88
2023-02-05T23:43:35.152Z,33.65
2023-02-05T23:46:02.965Z,48.53
2023-02-05T23:48:30.367Z,42.53
2023-02-05T23:50:57.555Z,33.78
2023-02-05T23:53:25.187Z,31.00
2023-02-05T23:55:53.454Z,28.48
2023-02-05T23:58:23.842Z,29.20
